createdAt,value
2023-02-07T00:02:26.967Z,-8.10
2023-02-07T00:06:33.869Z,-8.10
2023-02-07T00:10:37.560Z,-8.10
2023-02-07T00:14:41.080Z,-8.40
2023-02-07T00:18:44.563Z,-8.40
2023-02-07T00:22:50.454Z,-8.40
2023-02-07T00:26:53.773Z,-8.30
2023-02-07T00:31:05.188Z,-8.50
2023-02-07T00:35:09.719Z,-8.40
2023-02-07T00:39:16.581Z,-8.60
2023-02-07T00:43:29.399Z,-8.50
2023-02-07T00:47:33.342Z,-8.40
2023-02-07T00:51:36.749Z,-8.50
2023-02-07T00:55:41.532Z,-8.50
2023-02-07T00:59:45.912Z,-8.50
2023-02-07T01:03:49.577Z,-8.50
2023-02-07T01:07:52.939Z,-8.50
2023-02-07T01:11:57.636Z,-8.50
2023-02-07T01:16:01.643Z,-8.70
2023-02-07T01:20:05.769Z,-8.60
2023-02-07T01:24:10.615Z,-8.70
2023-02-07T01:28:16.675Z,-8.70
2023-02-07T01:32:20.258Z,-8.70
2023-02-07T01:36:23.818Z,-8.60
2023-02-07T01:40:28.086Z,-8.70
2023-02-07T01:45:13.923Z,-8.60
2023-02-07T01:49:19.773Z,-8.90
2023-02-07T01:53:25.949Z,-9.00
2023-02-07T01:57:29.449Z,-8.80
2023-02-07T02:01:34.776Z,-8.90
2023-02-07T02:05:40.034Z,-9.00
2023-02-07T02:09:43.367Z,-8.80
2023-02-07T02:13:52.739Z,-9.00
2023-02-07T02:18:19.600Z,-8.90
2023-02-07T02:23:00.894Z,-8.90
2023-02-07T02:27:11.871Z,-8.90
2023-02-07T02:31:31.140Z,-9.00
2023-02-07T02:35:41.842Z,-8.90
2023-02-07T02:39:53.160Z,-8.50
2023-02-07T02:44:01.091Z,-8.50
2023-02-07T02:48:06.498Z,-8.70
2023-02-07T02:52:11.407Z,-8.80
2023-02-07T02:56:42.774Z,-8.70
2023-02-07T03:00:59.039Z,-8.50
2023-02-07T03:05:18.087Z,-8.80
2023-02-07T03:09:30.836Z,-8.70
2023-02-07T03:13:37.857Z,-8.80
2023-02-07T03:17:56.092Z,-8.70
2023-02-07T03:22:02.221Z,-9.00
2023-02-07T03:26:08.855Z,-8.80
2023-02-07T03:30:16.195Z,-8.70
2023-02-07T03:34:23.205Z,-9.00
2023-02-07T03:38:26.817Z,-8.70
2023-02-07T03:42:34.729Z,-8.90
2023-02-07T03:46:38.796Z,-8.90
2023-02-07T03:50:42.481Z,-9.10
2023-02-07T03:54:45.747Z,-9.20
2023-02-07T03:58:50.468Z,-9.00
2023-02-07T04:02:53.789Z,-9.30
2023-02-07T04:06:57.209Z,-9.30
2023-02-07T04:11:01.421Z,-9.20
2023-02-07T04:15:08.766Z,-9.30
2023-02-07T04:19:12.258Z,-9.20
2023-02-07T04:23:15.704Z,-9.10
2023-02-07T04:27:19.233Z,-9.30
2023-02-07T04:31:24.279Z,-9.30
2023-02-07T04:35:27.696Z,-9.40
2023-02-07T04:39:31.079Z,-9.40
2023-02-07T04:43:36.297Z,-9.10
2023-02-07T04:47:41.050Z,-9.30
2023-02-07T04:51:44.322Z,-9.40
2023-02-07T04:55:50.039Z,-9.20
2023-02-07T04:59:53.285Z,-9.50
2023-02-07T05:03:58.034Z,-9.50
2023-02-07T05:08:01.294Z,-9.50
2023-02-07T05:12:04.585Z,-9.50
2023-02-07T05:16:08.243Z,-9.40
2023-02-07T05:20:13.894Z,-9.60
2023-02-07T05:24:17.170Z,-9.70
2023-02-07T05:28:20.747Z,-9.70
2023-02-07T05:32:41.686Z,-9.40
2023-02-07T05:36:46.347Z,-9.60
2023-02-07T05:40:50.056Z,-10.20
2023-02-07T05:44:54.782Z,-9.60
2023-02-07T05:48:58.042Z,-9.60
2023-02-07T05:53:04.113Z,-9.70
2023-02-07T05:57:07.473Z,-9.70
2023-02-07T06:01:10.886Z,-9.70
2023-02-07T06:09:48.651Z,-9.60
2023-02-07T06:13:52.054Z,-9.80
2023-02-07T06:17:55.339Z,-9.80
2023-02-07T06:21:59.003Z,-9.60
2023-02-07T06:26:03.839Z,-9.60
2023-02-07T06:30:08.958Z,-9.70
2023-02-07T06:34:12.475Z,-9.60
2023-02-07T06:38:16.013Z,-9.40
2023-02-07T06:42:20.777Z,-9.30
2023-02-07T06:46:24.190Z,-9.50
2023-02-07T06:50:27.685Z,-9.40
2023-02-07T06:54:30.974Z,-9.20
2023-02-07T06:58:35.731Z,-9.20
2023-02-07T07:02:39.104Z,-9.10
2023-02-07T07:06:42.698Z,-9.20
2023-02-07T07:10:46.328Z,-9.30
2023-02-07T07:14:51.269Z,-9.00
2023-02-07T07:18:54.533Z,-9.00
2023-02-07T07:22:59.007Z,-8.90
2023-02-07T07:27:02.345Z,-9.10
2023-02-07T07:31:09.267Z,-8.80
2023-02-07T07:35:12.731Z,-8.70
2023-02-07T07:39:17.158Z,-8.80
2023-02-07T07:43:20.864Z,-8.50
2023-02-07T07:47:28.099Z,-9.00
2023-02-07T07:51:31.365Z,-8.20
2023-02-07T07:55:34.835Z,-8.20
2023-02-07T07:59:38.117Z,-8.00
2023-02-07T08:03:42.905Z,-8.10
2023-02-07T08:07:46.306Z,-7.80
2023-02-07T08:11:49.693Z,-7.50
2023-02-07T08:15:53.892Z,-7.50
2023-02-07T08:19:59.001Z,-7.20
2023-02-07T08:24:02.335Z,-7.10
2023-02-07T08:28:05.938Z,-6.90
2023-02-07T08:32:09.380Z,-6.70
2023-02-07T08:36:14.406Z,-6.30
2023-02-07T08:40:18.417Z,-6.20
2023-02-07T08:44:21.736Z,-5.80
2023-02-07T08:48:25.083Z,-5.50
2023-02-07T08:52:30.042Z,-5.30
2023-02-07T08:56:33.349Z,-5.10
2023-02-07T09:00:36.908Z,-4.60
2023-02-07T09:04:42.668Z,-4.40
2023-02-07T09:08:47.363Z,-3.70
2023-02-07T09:12:50.638Z,-2.30
2023-02-07T09:16:54.225Z,-0.80
2023-02-07T09:21:01.018Z,-0.40
2023-02-07T09:25:08.991Z,-0.10
2023-02-07T09:29:14.447Z,0.00
2023-02-07T09:33:19.183Z,-0.50
2023-02-07T09:37:23.437Z,-1.10
2023-02-07T09:41:40.987Z,-1.90
2023-02-07T09:45:49.137Z,-2.30
2023-02-07T09:49:57.322Z,-2.30
2023-02-07T09:54:04.489Z,-2.30
2023-02-07T09:58:16.075Z,-2.00
2023-02-07T10:02:26.118Z,0.10
2023-02-07T10:06:30.186Z,1.90
2023-02-07T10:10:40.473Z,3.90
2023-02-07T10:15:14.252Z,4.60
2023-02-07T10:19:30.511Z,4.50
2023-02-07T10:23:48.585Z,3.90
2023-02-07T10:28:04.090Z,4.10
2023-02-07T10:32:15.819Z,4.00
2023-02-07T10:36:21.569Z,4.50
2023-02-07T10:40:30.896Z,4.80
2023-02-07T10:44:35.379Z,5.60
2023-02-07T10:48:40.540Z,5.90
2023-02-07T10:52:49.562Z,5.70
2023-02-07T10:56:57.802Z,5.60
2023-02-07T11:01:03.396Z,6.00
2023-02-07T11:05:37.894Z,6.60
2023-02-07T11:09:42.166Z,5.80
2023-02-07T11:13:51.732Z,6.10
2023-02-07T11:17:58.068Z,6.50
2023-02-07T11:22:19.268Z,5.70
2023-02-07T11:26:23.987Z,5.30
2023-02-07T11:30:29.964Z,6.10
2023-02-07T11:34:45.922Z,6.80
2023-02-07T11:38:53.762Z,8.20
2023-02-07T11:43:00.681Z,10.30
2023-02-07T11:47:06.290Z,11.60
2023-02-07T11:51:16.676Z,11.90
2023-02-07T11:55:24.485Z,13.00
2023-02-07T11:59:29.382Z,14.60
2023-02-07T12:03:35.787Z,13.40
2023-02-07T12:07:43.852Z,14.10
2023-02-07T12:11:49.926Z,13.40
2023-02-07T12:15:55.978Z,12.70
2023-02-07T12:20:06.019Z,12.90
2023-02-07T12:24:16.958Z,13.80
2023-02-07T12:28:28.454Z,14.70
2023-02-07T12:32:39.901Z,13.80
2023-02-07T12:36:48.824Z,14.90
2023-02-07T12:40:58.253Z,14.30
2023-02-07T12:45:04.738Z,15.00
2023-02-07T12:49:30.741Z,16.70
2023-02-07T12:53:53.642Z,16.90
2023-02-07T12:58:08.448Z,16.50
2023-02-07T13:02:29.771Z,17.10
2023-02-07T13:06:43.644Z,15.30
2023-02-07T13:10:58.305Z,15.20
2023-02-07T13:15:16.846Z,15.40
2023-02-07T13:19:28.310Z,15.90
2023-02-07T13:23:35.032Z,17.20
2023-02-07T13:27:40.030Z,16.20
2023-02-07T13:31:47.788Z,13.70
2023-02-07T13:35:54.562Z,12.80
2023-02-07T13:40:06.445Z,11.00
2023-02-07T13:44:20.532Z,8.00
2023-02-07T13:48:29.004Z,5.60
2023-02-07T13:52:47.360Z,3.90
2023-02-07T13:57:16.320Z,2.90
2023-02-07T14:01:22.719Z,2.30
2023-02-07T14:05:29.688Z,1.80
2023-02-07T14:09:38.760Z,1.50
2023-02-07T14:13:42.171Z,1.40
2023-02-07T14:18:01.358Z,1.20
2023-02-07T14:22:16.062Z,1.00
2023-02-07T14:26:52.149Z,1.00
2023-02-07T14:31:02.047Z,1.00
2023-02-07T14:35:28.271Z,0.90
2023-02-07T14:39:33.055Z,0.90
2023-02-07T14:43:43.932Z,0.70
2023-02-07T14:47:47.975Z,0.90
2023-02-07T14:51:55.360Z,1.00
2023-02-07T14:56:04.027Z,0.90
2023-02-07T15:00:29.016Z,0.80
2023-02-07T15:04:36.667Z,0.70
2023-02-07T15:08:41.289Z,0.70
2023-02-07T15:12:46.058Z,0.40
2023-02-07T15:16:51.152Z,0.30
2023-02-07T15:20:58.545Z,0.20
2023-02-07T15:25:02.821Z,-0.10
2023-02-07T15:29:09.139Z,-0.20
2023-02-07T15:33:20.865Z,-0.40
2023-02-07T15:37:26.472Z,-0.70
2023-02-07T15:41:30.051Z,-0.70
2023-02-07T15:45:34.574Z,-0.90
2023-02-07T15:49:43.733Z,-0.90
2023-02-07T15:53:52.766Z,-1.40
2023-02-07T15:57:58.366Z,-1.50
2023-02-07T16:02:04.243Z,-1.60
2023-02-07T16:06:15.758Z,-1.60
2023-02-07T16:10:38.192Z,-2.00
2023-02-07T16:14:42.573Z,-1.90
2023-02-07T16:18:48.692Z,-2.10
2023-02-07T16:22:53.820Z,-2.60
2023-02-07T16:26:59.392Z,-2.70
2023-02-07T16:31:03.817Z,-2.80
2023-02-07T16:35:16.902Z,-2.90
2023-02-07T16:39:23.865Z,-2.90
2023-02-07T16:43:38.812Z,-2.90
2023-02-07T16:47:42.418Z,-3.10
2023-02-07T16:51:46.724Z,-3.30
2023-02-07T16:55:52.117Z,-3.20
2023-02-07T16:59:55.734Z,-3.20
2023-02-07T17:03:59.572Z,-3.50
2023-02-07T17:08:03.279Z,-3.50
2023-02-07T17:12:09.210Z,-3.70
2023-02-07T17:16:14.895Z,-3.80
2023-02-07T17:20:30.240Z,-3.80
2023-02-07T17:24:35.097Z,-4.40
2023-02-07T17:28:40.058Z,-3.80
2023-02-07T17:32:46.830Z,-4.10
2023-02-07T17:36:52.792Z,-3.90
2023-02-07T17:40:57.417Z,-4.10
2023-02-07T17:45:03.648Z,-4.30
2023-02-07T17:49:25.523Z,-4.30
2023-02-07T17:53:30.966Z,-4.10
2023-02-07T17:57:36.232Z,-4.30
2023-02-07T18:01:48.817Z,-4.50
2023-02-07T18:05:55.438Z,-4.70
2023-02-07T18:10:00.669Z,-4.70
2023-02-07T18:14:05.903Z,-4.70
2023-02-07T18:18:14.703Z,-4.80
2023-02-07T18:22:21.316Z,-4.80
2023-02-07T18:26:25.564Z,-4.80
2023-02-07T18:30:33.359Z,-5.00
2023-02-07T18:34:40.696Z,-5.00
2023-02-07T18:38:46.318Z,-5.00
2023-02-07T18:42:52.281Z,-5.00
2023-02-07T18:46:57.371Z,-5.10
2023-02-07T18:51:14.083Z,-5.10
2023-02-07T18:55:29.556Z,-5.30
2023-02-07T18:59:34.653Z,-5.40
2023-02-07T19:03:41.820Z,-5.80
2023-02-07T19:07:55.925Z,-5.30
2023-02-07T19:12:03.411Z,-5.40
2023-02-07T19:16:12.090Z,-5.40
2023-02-07T19:20:21.897Z,-5.90
2023-02-07T19:24:32.022Z,-5.40
2023-02-07T19:28:40.748Z,-5.80
2023-02-07T19:32:51.289Z,-5.60
2023-02-07T19:37:00.410Z,-5.70
2023-02-07T19:41:08.825Z,-5.90
2023-02-07T19:45:14.962Z,-6.00
2023-02-07T19:49:29.905Z,-5.80
2023-02-07T19:54:01.558Z,-6.20
2023-02-07T19:58:12.434Z,-6.00
2023-02-07T20:02:21.165Z,-6.30
2023-02-07T20:06:30.083Z,-6.00
2023-02-07T20:10:35.296Z,-6.30
2023-02-07T20:15:00.250Z,-6.40
2023-02-07T20:19:10.667Z,-6.20
2023-02-07T20:23:15.701Z,-6.20
2023-02-07T20:27:23.084Z,-6.40
2023-02-07T20:31:30.864Z,-6.30
2023-02-07T20:35:39.120Z,-6.40
2023-02-07T20:39:44.132Z,-6.20
2023-02-07T20:43:51.606Z,-6.20
2023-02-07T20:47:58.081Z,-6.50
2023-02-07T20:52:04.567Z,-6.50
2023-02-07T20:56:12.826Z,-6.50
2023-02-07T21:00:18.506Z,-6.60
2023-02-07T21:04:26.517Z,-6.50
2023-02-07T21:08:30.475Z,-6.60
2023-02-07T21:12:34.678Z,-6.80
2023-02-07T21:16:39.048Z,-6.80
2023-02-07T21:20:45.620Z,-6.80
2023-02-07T21:24:49.664Z,-6.70
2023-02-07T21:28:57.818Z,-6.80
2023-02-07T21:33:04.709Z,-6.90
2023-02-07T21:37:10.348Z,-6.90
2023-02-07T21:41:16.836Z,-7.00
2023-02-07T21:45:21.730Z,-6.90
2023-02-07T21:49:25.491Z,-6.80
2023-02-07T21:53:30.452Z,-6.90
2023-02-07T21:57:33.872Z,-7.10
2023-02-07T22:01:37.679Z,-7.10
2023-02-07T22:05:40.922Z,-7.20
2023-02-07T22:09:45.677Z,-7.10
2023-02-07T22:13:49.651Z,-7.10
2023-02-07T22:17:53.404Z,-7.20
2023-02-07T22:21:57.833Z,-7.20
2023-02-07T22:26:02.777Z,-7.40
2023-02-07T22:30:06.816Z,-7.50
2023-02-07T22:34:13.114Z,-7.40
2023-02-07T22:38:16.609Z,-7.40
2023-02-07T22:42:21.310Z,-7.50
2023-02-07T22:46:25.714Z,-7.70
2023-02-07T22:50:28.992Z,-7.60
2023-02-07T22:54:33.335Z,-7.70
2023-02-07T22:58:39.103Z,-7.60
2023-02-07T23:02:42.460Z,-7.40
2023-02-07T23:06:45.964Z,-7.50
2023-02-07T23:10:49.391Z,-7.60
2023-02-07T23:14:54.489Z,-7.80
2023-02-07T23:19:02.731Z,-7.70
2023-02-07T23:23:06.087Z,-7.80
2023-02-07T23:27:09.486Z,-7.90
2023-02-07T23:31:15.819Z,-7.80
2023-02-07T23:35:19.389Z,-7.90
2023-02-07T23:39:22.638Z,-7.90
2023-02-07T23:43:26.815Z,-8.00
2023-02-07T23:47:31.456Z,-7.80
2023-02-07T23:51:34.752Z,-7.90
2023-02-07T23:55:41.972Z,-7.90
2023-02-07T23:59:45.275Z,-8.10
